createdAt,value
2024-03-15T00:00:35.908Z,99789.25
2024-03-15T00:03:04.096Z,99788.75
2024-03-15T00:05:31.996Z,99797.44
2024-03-15T00:07:59.993Z,99791.50
2024-03-15T00:10:27.846Z,99792.88
2024-03-15T00:12:56.067Z,99784.69
2024-03-15T00:15:24.000Z,99787.94
2024-03-15T00:17:52.029Z,99786.44
2024-03-15T00:20:19.874Z,99799.06
2024-03-15T00:22:48.054Z,99782.25
2024-03-15T00:25:16.122Z,99780.38
2024-03-15T00:27:44.145Z,99782.09
2024-03-15T00:30:12.450Z,99793.09
2024-03-15T00:32:41.086Z,99776.28
2024-03-15T00:35:09.134Z,99770.09
2024-03-15T00:37:38.040Z,99782.25
2024-03-15T00:40:06.910Z,99795.56
2024-03-15T00:42:36.133Z,99789.56
2024-03-15T00:45:07.579Z,99799.97
2024-03-15T00:47:37.165Z,99769.72
2024-03-15T00:50:05.438Z,99778.44
2024-03-15T00:52:34.048Z,99779.19
2024-03-15T00:55:02.025Z,99757.94
2024-03-15T00:57:30.100Z,99774.22
2024-03-15T00:59:58.222Z,99764.97
2024-03-15T01:02:30.825Z,99748.81
2024-03-15T01:04:59.411Z,99769.59
2024-03-15T01:07:28.073Z,99762.09
2024-03-15T01:09:56.092Z,99767.34
2024-03-15T01:12:24.005Z,99739.16
2024-03-15T01:14:52.098Z,99750.22
2024-03-15T01:17:19.939Z,99766.78
2024-03-15T01:19:48.078Z,99736.47
2024-03-15T01:22:16.798Z,99768.84
2024-03-15T01:24:46.178Z,99747.06
2024-03-15T01:27:14.146Z,99736.94
2024-03-15T01:29:42.110Z,99734.56
2024-03-15T01:32:09.926Z,99720.28
2024-03-15T01:34:38.153Z,99744.84
2024-03-15T01:37:05.978Z,99736.41
2024-03-15T01:39:34.161Z,99741.69
2024-03-15T01:42:02.372Z,99750.47
2024-03-15T01:44:34.117Z,99730.81
2024-03-15T01:47:02.142Z,99727.28
2024-03-15T01:49:29.964Z,99751.72
2024-03-15T01:51:57.789Z,99729.75
2024-03-15T01:54:26.164Z,99709.59
2024-03-15T01:56:54.223Z,99726.66
2024-03-15T01:59:22.117Z,99713.78
2024-03-15T02:01:50.016Z,99708.66
2024-03-15T02:04:18.133Z,99714.88
2024-03-15T02:06:46.009Z,99738.59
2024-03-15T02:09:14.180Z,99717.44
2024-03-15T02:11:42.031Z,99710.88
2024-03-15T02:14:13.146Z,99713.88
2024-03-15T02:16:40.964Z,99712.03
2024-03-15T02:19:11.237Z,99730.66
2024-03-15T02:21:39.129Z,99727.63
2024-03-15T02:24:08.221Z,99730.41
2024-03-15T02:26:36.069Z,99728.72
2024-03-15T02:29:08.761Z,99713.56
2024-03-15T02:31:37.204Z,99718.25
2024-03-15T02:34:05.411Z,99708.19
2024-03-15T02:36:34.247Z,99732.28
2024-03-15T02:39:02.185Z,99708.94
2024-03-15T02:41:29.991Z,99740.22
2024-03-15T02:43:58.191Z,99722.44
2024-03-15T02:46:26.765Z,99696.19
2024-03-15T02:48:54.762Z,99676.38
2024-03-15T02:51:26.223Z,99702.28
2024-03-15T02:53:55.782Z,99695.63
2024-03-15T02:56:24.339Z,99724.44
2024-03-15T02:58:52.193Z,99700.91
2024-03-15T03:01:21.401Z,99700.53
2024-03-15T03:03:49.372Z,99697.56
2024-03-15T03:06:18.264Z,99690.00
2024-03-15T03:08:46.147Z,99701.56
2024-03-15T03:11:17.229Z,99695.31
2024-03-15T03:13:45.077Z,99714.31
2024-03-15T03:16:13.208Z,99699.13
2024-03-15T03:18:41.190Z,99713.81
2024-03-15T03:21:09.104Z,99721.97
2024-03-15T03:23:37.228Z,99718.00
2024-03-15T03:26:05.884Z,99715.47
2024-03-15T03:28:34.254Z,99718.19
2024-03-15T03:31:02.162Z,99693.25
2024-03-15T03:33:30.065Z,99732.97
2024-03-15T03:35:58.266Z,99711.72
2024-03-15T03:38:26.163Z,99712.75
2024-03-15T03:40:54.033Z,99725.88
2024-03-15T03:43:22.276Z,99727.16
2024-03-15T03:45:50.232Z,99714.00
2024-03-15T03:48:18.265Z,99720.25
2024-03-15T03:50:46.322Z,99722.19
2024-03-15T03:53:14.174Z,99704.19
2024-03-15T03:55:43.282Z,99700.66
2024-03-15T03:58:11.501Z,99699.50
2024-03-15T04:00:39.421Z,99693.84
2024-03-15T04:03:08.401Z,99694.63
2024-03-15T04:05:36.301Z,99713.69
2024-03-15T04:08:04.233Z,99716.19
2024-03-15T04:10:37.641Z,99724.34
2024-03-15T04:13:05.532Z,99718.56
2024-03-15T04:15:33.870Z,99715.22
2024-03-15T04:18:03.450Z,99722.88
2024-03-15T04:20:31.804Z,99703.34
2024-03-15T04:23:00.445Z,99690.34
2024-03-15T04:25:28.550Z,99673.56
2024-03-15T04:27:57.600Z,99676.31
2024-03-15T04:30:26.059Z,99712.31
2024-03-15T04:32:57.879Z,99693.81
2024-03-15T04:35:28.589Z,99692.66
2024-03-15T04:37:56.669Z,99679.41
2024-03-15T04:40:27.651Z,99679.34
2024-03-15T04:42:57.948Z,99695.13
2024-03-15T04:45:26.511Z,99678.38
2024-03-15T04:47:55.583Z,99685.66
2024-03-15T04:50:24.419Z,99698.09
2024-03-15T04:52:54.236Z,99714.66
2024-03-15T04:55:23.682Z,99708.88
2024-03-15T04:57:52.162Z,99697.91
2024-03-15T05:00:22.821Z,99707.88
2024-03-15T05:02:52.303Z,99698.13
2024-03-15T05:05:22.856Z,99682.63
2024-03-15T05:07:51.407Z,99710.63
2024-03-15T05:10:19.968Z,99707.75
2024-03-15T05:12:49.653Z,99695.91
2024-03-15T05:15:17.908Z,99688.72
2024-03-15T05:17:46.534Z,99705.06
2024-03-15T05:20:14.950Z,99694.69
2024-03-15T05:22:45.399Z,99680.66
2024-03-15T05:25:15.735Z,99717.59
2024-03-15T05:27:44.263Z,99705.25
2024-03-15T05:30:13.581Z,99697.31
2024-03-15T05:32:41.625Z,99706.41
2024-03-15T05:35:10.455Z,99718.31
2024-03-15T05:37:38.580Z,99697.84
2024-03-15T05:40:08.419Z,99703.81
2024-03-15T05:42:36.981Z,99706.06
2024-03-15T05:45:06.448Z,99711.13
2024-03-15T05:47:34.850Z,99685.09
2024-03-15T05:50:05.867Z,99704.06
2024-03-15T05:52:34.621Z,99699.38
2024-03-15T05:55:03.514Z,99706.75
2024-03-15T05:57:31.780Z,99687.34
2024-03-15T06:00:05.446Z,99721.94
2024-03-15T06:02:34.141Z,99718.47
2024-03-15T06:05:02.444Z,99721.13
2024-03-15T06:07:30.287Z,99714.06
2024-03-15T06:09:58.150Z,99705.66
2024-03-15T06:12:29.559Z,99716.00
2024-03-15T06:14:57.704Z,99718.13
2024-03-15T06:17:26.474Z,99732.09
2024-03-15T06:19:57.105Z,99731.50
2024-03-15T06:22:25.521Z,99742.41
2024-03-15T06:24:56.115Z,99744.06
2024-03-15T06:27:24.609Z,99734.56
2024-03-15T06:29:53.894Z,99727.31
2024-03-15T06:32:27.872Z,99721.38
2024-03-15T06:34:56.724Z,99749.69
2024-03-15T06:37:25.487Z,99722.13
2024-03-15T06:40:04.678Z,99731.84
2024-03-15T06:43:00.712Z,99707.16
2024-03-15T06:45:45.684Z,99721.34
2024-03-15T06:48:18.955Z,99745.34
2024-03-15T06:50:51.589Z,99743.28
2024-03-15T06:53:19.778Z,99747.22
2024-03-15T06:55:48.292Z,99772.31
2024-03-15T06:58:23.689Z,99747.16
2024-03-15T07:00:52.480Z,99757.31
2024-03-15T07:03:20.589Z,99764.50
2024-03-15T07:05:48.486Z,99726.53
2024-03-15T07:08:16.670Z,99766.69
2024-03-15T07:10:44.638Z,99761.78
2024-03-15T07:13:12.557Z,99740.69
2024-03-15T07:15:40.604Z,99741.44
2024-03-15T07:18:10.080Z,99765.88
2024-03-15T07:20:39.571Z,99774.13
2024-03-15T07:23:08.317Z,99781.34
2024-03-15T07:25:38.025Z,99734.09
2024-03-15T07:28:06.655Z,99771.72
2024-03-15T07:30:36.187Z,99753.78
2024-03-15T07:33:04.854Z,99739.75
2024-03-15T07:35:32.901Z,99751.06
2024-03-15T07:38:00.879Z,99769.75
2024-03-15T07:40:29.643Z,99758.41
2024-03-15T07:42:58.089Z,99759.13
2024-03-15T07:45:26.681Z,99760.22
2024-03-15T07:47:54.541Z,99779.53
2024-03-15T07:50:22.577Z,99795.59
2024-03-15T07:52:51.665Z,99783.66
2024-03-15T07:55:21.840Z,99796.75
2024-03-15T07:57:50.137Z,99794.94
2024-03-15T08:00:20.661Z,99785.81
2024-03-15T08:02:48.516Z,99768.63
2024-03-15T08:05:18.673Z,99798.00
2024-03-15T08:07:46.998Z,99783.88
2024-03-15T08:10:16.761Z,99800.16
2024-03-15T08:12:45.087Z,99775.47
2024-03-15T08:15:15.745Z,99785.59
2024-03-15T08:17:45.194Z,99772.09
2024-03-15T08:20:13.217Z,99790.75
2024-03-15T08:22:41.647Z,99794.28
2024-03-15T08:25:10.457Z,99790.38
2024-03-15T08:27:40.977Z,99777.88
2024-03-15T08:30:10.679Z,99811.94
2024-03-15T08:32:38.570Z,99785.78
2024-03-15T08:35:09.145Z,99778.91
2024-03-15T08:37:37.679Z,99805.97
2024-03-15T08:40:10.595Z,99776.16
2024-03-15T08:42:38.687Z,99781.63
2024-03-15T08:45:10.198Z,99803.63
2024-03-15T08:47:50.859Z,99782.69
2024-03-15T08:50:34.658Z,99793.59
2024-03-15T08:53:04.294Z,99796.22
2024-03-15T08:55:32.398Z,99785.84
2024-03-15T08:58:00.832Z,99772.78
2024-03-15T09:00:28.893Z,99790.09
2024-03-15T09:02:57.726Z,99779.41
2024-03-15T09:05:25.585Z,99785.06
2024-03-15T09:07:53.792Z,99788.31
2024-03-15T09:10:22.309Z,99778.22
2024-03-15T09:12:50.328Z,99814.50
2024-03-15T09:15:21.831Z,99779.47
2024-03-15T09:17:50.343Z,99809.44
2024-03-15T09:20:20.945Z,99786.09
2024-03-15T09:22:50.722Z,99788.09
2024-03-15T09:25:23.388Z,99797.56
2024-03-15T09:27:54.284Z,99820.66
2024-03-15T09:30:28.134Z,99786.25
2024-03-15T09:32:57.645Z,99798.06
2024-03-15T09:35:26.839Z,99782.03
2024-03-15T09:37:54.781Z,99811.66
2024-03-15T09:40:24.912Z,99829.72
2024-03-15T09:42:54.935Z,99815.88
2024-03-15T09:45:23.889Z,99808.78
2024-03-15T09:47:52.135Z,99798.00
2024-03-15T09:50:23.772Z,99824.53
2024-03-15T09:52:52.362Z,99825.53
2024-03-15T09:55:21.871Z,99796.94
2024-03-15T09:57:50.529Z,99828.28
2024-03-15T10:00:20.719Z,99796.31
2024-03-15T10:02:50.568Z,99822.28
2024-03-15T10:05:18.802Z,99822.78
2024-03-15T10:07:46.824Z,99804.09
2024-03-15T10:10:14.993Z,99791.41
2024-03-15T10:12:43.401Z,99802.81
2024-03-15T10:15:12.831Z,99803.78
2024-03-15T10:17:41.519Z,99798.69
2024-03-15T10:20:13.776Z,99816.81
2024-03-15T10:22:41.793Z,99799.69
2024-03-15T10:25:14.847Z,99792.03
2024-03-15T10:27:43.381Z,99828.31
2024-03-15T10:30:14.856Z,99844.41
2024-03-15T10:32:42.832Z,99800.72
2024-03-15T10:35:13.866Z,99821.47
2024-03-15T10:37:41.889Z,99822.22
2024-03-15T10:40:10.811Z,99785.25
2024-03-15T10:42:38.705Z,99802.78
2024-03-15T10:45:06.828Z,99830.19
2024-03-15T10:47:34.960Z,99806.47
2024-03-15T10:50:02.904Z,99810.19
2024-03-15T10:52:30.828Z,99822.97
2024-03-15T10:54:58.853Z,99842.66
2024-03-15T10:57:26.824Z,99820.69
2024-03-15T10:59:54.760Z,99823.34
2024-03-15T11:02:22.708Z,99808.59
2024-03-15T11:04:51.122Z,99810.59
2024-03-15T11:07:20.838Z,99818.25
2024-03-15T11:09:49.467Z,99817.41
2024-03-15T11:12:19.173Z,99836.69
2024-03-15T11:14:47.180Z,99799.56
2024-03-15T11:17:21.739Z,99818.50
2024-03-15T11:19:50.662Z,99813.25
2024-03-15T11:22:21.200Z,99825.84
2024-03-15T11:24:52.153Z,99827.72
2024-03-15T11:27:21.143Z,99826.00
2024-03-15T11:29:56.898Z,99795.94
2024-03-15T11:32:26.120Z,99807.03
2024-03-15T11:34:54.497Z,99821.19
2024-03-15T11:37:24.564Z,99788.03
2024-03-15T11:40:00.052Z,99784.88
2024-03-15T11:42:28.589Z,99793.16
2024-03-15T11:44:57.338Z,99816.13
2024-03-15T11:47:26.999Z,99836.28
2024-03-15T11:49:58.888Z,99828.72
2024-03-15T11:52:26.667Z,99829.63
2024-03-15T11:54:56.091Z,99840.50
2024-03-15T11:57:23.979Z,99852.31
2024-03-15T11:59:52.930Z,99844.44
2024-03-15T12:02:20.818Z,99830.03
2024-03-15T12:04:48.901Z,99826.69
2024-03-15T12:07:16.984Z,99814.81
2024-03-15T12:09:46.968Z,99814.41
2024-03-15T12:12:14.842Z,99813.91
2024-03-15T12:14:43.924Z,99839.88
2024-03-15T12:17:13.384Z,99814.63
2024-03-15T12:19:42.010Z,99811.63
2024-03-15T12:22:10.192Z,99820.91
2024-03-15T12:24:39.131Z,99825.69
2024-03-15T12:27:08.196Z,99822.53
2024-03-15T12:29:38.152Z,99824.09
2024-03-15T12:32:06.112Z,99805.81
2024-03-15T12:34:34.098Z,99813.47
2024-03-15T12:37:03.039Z,99813.97
2024-03-15T12:39:30.897Z,99777.66
2024-03-15T12:41:58.966Z,99811.03
2024-03-15T12:44:26.737Z,99791.72
2024-03-15T12:46:54.955Z,99771.75
2024-03-15T12:49:22.725Z,99780.19
2024-03-15T12:51:51.023Z,99812.69
2024-03-15T12:54:18.842Z,99775.56
2024-03-15T12:56:47.781Z,99789.78
2024-03-15T12:59:15.961Z,99786.31
2024-03-15T13:01:43.774Z,99794.16
2024-03-15T13:04:11.626Z,99777.97
2024-03-15T13:06:40.027Z,99782.84
2024-03-15T13:09:08.116Z,99778.72
2024-03-15T13:11:36.032Z,99787.56
2024-03-15T13:14:04.116Z,99770.88
2024-03-15T13:16:31.988Z,99759.84
2024-03-15T13:18:59.754Z,99764.44
2024-03-15T13:21:28.031Z,99774.66
2024-03-15T13:23:55.813Z,99751.84
2024-03-15T13:26:26.018Z,99781.59
2024-03-15T13:28:56.112Z,99773.38
2024-03-15T13:31:24.604Z,99745.94
2024-03-15T13:33:53.085Z,99760.09
2024-03-15T13:36:20.934Z,99765.38
2024-03-15T13:38:50.192Z,99737.47
2024-03-15T13:41:24.285Z,99733.84
2024-03-15T13:43:53.040Z,99743.03
2024-03-15T13:46:22.805Z,99747.06
2024-03-15T13:51:19.068Z,99762.84
2024-03-15T13:53:46.878Z,99755.84
2024-03-15T13:56:15.124Z,99725.47
2024-03-15T13:58:44.773Z,99739.31
2024-03-15T14:01:13.062Z,99749.63
2024-03-15T14:03:41.118Z,99759.97
2024-03-15T14:06:09.452Z,99756.88
2024-03-15T14:08:38.243Z,99747.38
2024-03-15T14:11:09.139Z,99751.34
2024-03-15T14:13:38.069Z,99765.03
2024-03-15T14:16:06.275Z,99743.41
2024-03-15T14:18:35.116Z,99759.38
2024-03-15T14:21:05.216Z,99745.75
2024-03-15T14:23:33.093Z,99763.72
2024-03-15T14:26:00.909Z,99759.19
2024-03-15T14:28:30.103Z,99740.38
2024-03-15T14:31:01.415Z,99754.69
2024-03-15T14:33:30.166Z,99726.78
2024-03-15T14:35:59.087Z,99744.88
2024-03-15T14:38:27.694Z,99759.19
2024-03-15T14:40:56.090Z,99768.31
2024-03-15T14:43:24.937Z,99737.44
2024-03-15T14:45:53.145Z,99731.34
2024-03-15T14:48:21.024Z,99735.22
2024-03-15T14:50:52.370Z,99759.06
2024-03-15T14:53:22.245Z,64645.06
2024-03-15T15:00:51.533Z,64645.06
